createdAt,value
2023-04-25T00:01:39.015Z,99.90
2023-04-25T00:04:11.242Z,99.90
2023-04-25T00:06:40.915Z,99.90
2023-04-25T00:09:11.286Z,99.90
2023-04-25T00:11:40.647Z,99.90
2023-04-25T00:14:11.199Z,99.90
2023-04-25T00:16:42.609Z,99.90
2023-04-25T00:19:14.827Z,99.90
2023-04-25T00:21:47.626Z,99.90
2023-04-25T00:24:16.602Z,99.90
2023-04-25T00:26:45.746Z,99.90
2023-04-25T00:29:14.742Z,99.90
2023-04-25T00:31:44.952Z,99.90
2023-04-25T00:34:15.601Z,99.90
2023-04-25T00:36:44.807Z,99.90
2023-04-25T00:39:20.753Z,99.90
2023-04-25T00:41:54.436Z,99.90
2023-04-25T00:44:23.944Z,99.90
2023-04-25T00:46:54.476Z,99.90
2023-04-25T00:49:25.144Z,99.90
2023-04-25T00:51:54.482Z,99.90
2023-04-25T00:54:23.798Z,99.90
2023-04-25T00:56:54.081Z,99.90
2023-04-25T00:59:23.988Z,99.90
2023-04-25T01:01:53.247Z,99.90
2023-04-25T01:04:22.832Z,99.90
2023-04-25T01:06:54.328Z,99.90
2023-04-25T01:09:26.006Z,99.90
2023-04-25T01:11:59.636Z,99.90
2023-04-25T01:14:29.148Z,99.90
2023-04-25T01:17:00.303Z,99.90
2023-04-25T01:19:29.852Z,99.90
2023-04-25T01:22:01.868Z,99.90
2023-04-25T01:24:34.215Z,99.90
2023-04-25T01:27:04.332Z,99.90
2023-04-25T01:29:35.121Z,99.90
2023-04-25T01:32:05.178Z,99.90
2023-04-25T01:34:35.752Z,99.90
2023-04-25T01:37:06.300Z,99.90
2023-04-25T01:39:35.977Z,99.90
2023-04-25T01:42:05.251Z,99.90
2023-04-25T01:44:34.321Z,99.90
2023-04-25T01:47:03.328Z,99.90
2023-04-25T01:49:33.617Z,99.90
2023-04-25T01:52:02.856Z,99.90
2023-04-25T01:54:32.816Z,99.90
2023-04-25T01:57:01.801Z,99.90
2023-04-25T01:59:31.865Z,99.90
2023-04-25T02:02:20.908Z,99.90
2023-04-25T02:04:50.577Z,99.90
2023-04-25T02:07:19.407Z,99.90
2023-04-25T02:09:57.591Z,99.90
2023-04-25T02:12:29.771Z,99.90
2023-04-25T02:15:17.836Z,99.90
2023-04-25T02:18:01.758Z,99.90
2023-04-25T02:20:32.067Z,99.90
2023-04-25T02:23:01.418Z,99.90
2023-04-25T02:25:32.651Z,99.90
2023-04-25T02:28:01.543Z,99.90
2023-04-25T02:30:31.976Z,99.90
2023-04-25T02:33:00.700Z,99.90
2023-04-25T02:35:31.362Z,99.90
2023-04-25T02:38:00.527Z,99.90
2023-04-25T02:40:29.392Z,99.90
2023-04-25T02:43:00.078Z,99.90
2023-04-25T02:45:29.075Z,99.90
2023-04-25T02:47:58.656Z,99.90
2023-04-25T02:50:27.725Z,99.90
2023-04-25T02:52:56.743Z,99.90
2023-04-25T02:55:30.901Z,99.90
2023-04-25T02:58:03.318Z,99.90
2023-04-25T03:00:42.548Z,99.90
2023-04-25T03:03:11.849Z,99.90
2023-04-25T03:05:40.739Z,99.90
2023-04-25T03:08:09.449Z,99.90
2023-04-25T03:10:41.480Z,99.90
2023-04-25T03:13:14.103Z,99.90
2023-04-25T03:15:45.350Z,99.90
2023-04-25T03:18:14.369Z,99.90
2023-04-25T03:20:44.100Z,99.90
2023-04-25T03:23:13.329Z,99.90
2023-04-25T03:25:44.566Z,99.90
2023-04-25T03:28:15.250Z,99.90
2023-04-25T03:30:46.295Z,99.90
2023-04-25T03:33:15.484Z,99.90
2023-04-25T03:35:44.954Z,99.90
2023-04-25T03:38:14.168Z,99.90
2023-04-25T03:40:43.312Z,99.90
2023-04-25T03:43:27.457Z,99.90
2023-04-25T03:46:01.758Z,99.90
2023-04-25T03:48:30.655Z,99.90
2023-04-25T03:50:59.698Z,99.90
2023-04-25T03:53:33.631Z,99.90
2023-04-25T03:56:17.361Z,99.90
2023-04-25T03:58:51.193Z,99.90
2023-04-25T04:01:24.291Z,99.90
2023-04-25T04:03:53.419Z,99.90
2023-04-25T04:06:22.938Z,99.90
2023-04-25T04:08:58.682Z,99.90
2023-04-25T04:11:28.089Z,99.90
2023-04-25T04:14:00.903Z,99.90
2023-04-25T04:16:32.526Z,99.90
2023-04-25T04:19:03.401Z,99.90
2023-04-25T04:21:33.524Z,99.90
2023-04-25T04:24:04.046Z,99.90
2023-04-25T04:26:42.335Z,99.90
2023-04-25T04:29:29.802Z,99.90
2023-04-25T04:32:19.949Z,99.90
2023-04-25T04:34:52.300Z,99.90
2023-04-25T04:37:24.001Z,99.90
2023-04-25T04:39:53.904Z,99.90
2023-04-25T04:42:30.950Z,99.90
2023-04-25T04:45:11.320Z,99.90
2023-04-25T04:47:59.153Z,99.90
2023-04-25T04:50:47.347Z,99.90
2023-04-25T04:53:42.542Z,99.90
2023-04-25T04:56:22.159Z,99.90
2023-04-25T04:58:57.253Z,99.90
2023-04-25T05:01:40.172Z,99.90
2023-04-25T05:04:30.656Z,99.90
2023-04-25T05:07:16.829Z,99.90
2023-04-25T05:10:07.373Z,99.90
2023-04-25T05:12:45.278Z,99.90
2023-04-25T05:15:43.498Z,99.90
2023-04-25T05:18:31.862Z,99.90
2023-04-25T05:21:22.290Z,99.90
2023-04-25T05:24:09.721Z,99.90
2023-04-25T05:26:57.559Z,99.90
2023-04-25T05:29:47.261Z,99.90
2023-04-25T05:32:32.792Z,99.90
2023-04-25T05:35:05.199Z,99.90
2023-04-25T05:37:40.437Z,99.90
2023-04-25T05:40:15.768Z,99.90
2023-04-25T05:43:03.529Z,99.90
2023-04-25T05:46:00.900Z,99.90
2023-04-25T05:48:43.320Z,99.90
2023-04-25T05:51:25.006Z,99.90
2023-04-25T05:54:13.632Z,99.90
2023-04-25T05:56:42.868Z,99.90
2023-04-25T05:59:11.488Z,99.90
2023-04-25T06:01:41.976Z,99.90
2023-04-25T06:04:11.379Z,99.90
2023-04-25T06:06:42.428Z,99.90
2023-04-25T06:09:13.358Z,99.90
2023-04-25T06:11:43.753Z,99.90
2023-04-25T06:14:13.230Z,99.90
2023-04-25T06:16:47.501Z,99.90
2023-04-25T06:19:16.685Z,99.90
2023-04-25T06:21:47.247Z,99.90
2023-04-25T06:24:16.319Z,99.90
2023-04-25T06:26:44.885Z,99.90
2023-04-25T06:29:13.720Z,99.90
2023-04-25T06:31:42.458Z,99.90
2023-04-25T06:34:11.124Z,99.90
2023-04-25T06:36:43.402Z,99.90
2023-04-25T06:39:21.513Z,99.90
2023-04-25T06:41:51.451Z,99.90
2023-04-25T06:44:38.792Z,99.90
2023-04-25T06:47:10.306Z,99.90
2023-04-25T06:49:40.184Z,99.90
2023-04-25T06:52:09.819Z,99.90
2023-04-25T06:54:40.553Z,99.90
2023-04-25T06:57:27.316Z,99.90
2023-04-25T06:59:58.802Z,99.90
2023-04-25T07:02:28.711Z,99.90
2023-04-25T07:05:00.964Z,99.90
2023-04-25T07:07:30.170Z,99.90
2023-04-25T07:10:02.038Z,99.90
2023-04-25T07:12:30.895Z,99.90
2023-04-25T07:15:00.188Z,99.90
2023-04-25T07:17:28.854Z,99.90
2023-04-25T07:19:57.392Z,99.90
2023-04-25T07:22:27.586Z,99.90
2023-04-25T07:24:56.738Z,99.90
2023-04-25T07:27:30.118Z,99.90
2023-04-25T07:30:06.854Z,99.90
2023-04-25T07:32:37.252Z,99.30
2023-04-25T07:35:08.670Z,99.90
2023-04-25T07:37:40.214Z,98.30
2023-04-25T07:40:18.057Z,97.60
2023-04-25T07:43:03.655Z,95.40
2023-04-25T07:45:51.532Z,93.70
2023-04-25T07:48:29.545Z,94.10
2023-04-25T07:51:11.278Z,92.70
2023-04-25T07:53:42.556Z,94.40
2023-04-25T07:56:16.328Z,93.30
2023-04-25T07:58:50.311Z,93.60
2023-04-25T08:01:24.361Z,92.60
2023-04-25T08:04:04.466Z,92.50
2023-04-25T08:06:51.727Z,91.90
2023-04-25T08:09:26.148Z,93.30
2023-04-25T08:11:56.730Z,92.80
2023-04-25T08:14:39.626Z,91.90
2023-04-25T08:17:08.813Z,92.70
2023-04-25T08:19:45.096Z,90.50
2023-04-25T08:22:22.549Z,91.60
2023-04-25T08:24:59.565Z,90.00
2023-04-25T08:27:34.360Z,89.00
2023-04-25T08:30:14.132Z,90.00
2023-04-25T08:32:46.251Z,87.00
2023-04-25T08:35:30.479Z,89.20
2023-04-25T08:38:02.446Z,88.50
2023-04-25T08:40:35.550Z,88.70
2023-04-25T08:43:12.992Z,87.70
2023-04-25T08:45:47.465Z,90.20
2023-04-25T08:48:31.632Z,90.90
2023-04-25T08:51:01.509Z,91.10
2023-04-25T08:53:33.912Z,90.90
2023-04-25T08:56:12.872Z,90.80
2023-04-25T08:58:44.333Z,90.20
2023-04-25T09:01:18.541Z,89.90
2023-04-25T09:03:54.585Z,90.70
2023-04-25T09:06:25.463Z,92.70
2023-04-25T09:08:54.409Z,91.00
2023-04-25T09:11:23.940Z,90.80
2023-04-25T09:14:14.148Z,90.50
2023-04-25T09:17:09.223Z,91.00
2023-04-25T09:19:46.711Z,91.80
2023-04-25T09:22:34.797Z,89.00
2023-04-25T09:25:14.617Z,85.40
2023-04-25T09:27:53.441Z,84.30
2023-04-25T09:30:34.490Z,81.30
2023-04-25T09:33:21.628Z,81.40
2023-04-25T09:35:56.526Z,73.50
2023-04-25T09:38:45.093Z,72.10
2023-04-25T09:41:27.955Z,72.70
2023-04-25T09:44:01.267Z,75.00
2023-04-25T09:46:54.787Z,79.50
2023-04-25T09:49:28.928Z,78.00
2023-04-25T09:52:04.022Z,77.00
2023-04-25T09:54:57.390Z,79.30
2023-04-25T09:57:32.945Z,80.70
2023-04-25T10:00:09.315Z,81.70
2023-04-25T10:02:49.183Z,82.30
2023-04-25T10:05:40.415Z,81.30
2023-04-25T10:08:12.252Z,81.90
2023-04-25T10:10:42.969Z,77.40
2023-04-25T10:13:11.715Z,76.60
2023-04-25T10:15:41.497Z,78.00
2023-04-25T10:18:11.293Z,77.30
2023-04-25T10:20:41.902Z,79.60
2023-04-25T10:23:16.244Z,74.80
2023-04-25T10:25:45.867Z,73.30
2023-04-25T10:28:14.395Z,70.30
2023-04-25T10:31:00.323Z,70.60
2023-04-25T10:33:36.212Z,71.20
2023-04-25T10:36:17.775Z,68.90
2023-04-25T10:38:47.876Z,69.10
2023-04-25T10:41:17.006Z,71.10
2023-04-25T10:43:47.097Z,70.70
2023-04-25T10:46:19.061Z,70.10
2023-04-25T10:48:51.968Z,71.40
2023-04-25T10:51:25.052Z,73.00
2023-04-25T10:54:02.377Z,71.30
2023-04-25T10:56:32.661Z,71.80
2023-04-25T10:59:12.346Z,71.80
2023-04-25T11:01:43.630Z,71.30
2023-04-25T11:04:24.024Z,74.20
2023-04-25T11:07:13.156Z,73.10
2023-04-25T11:09:43.927Z,71.50
2023-04-25T11:12:14.518Z,66.30
2023-04-25T11:14:45.225Z,64.20
2023-04-25T11:17:14.609Z,64.40
2023-04-25T11:19:43.294Z,63.40
2023-04-25T11:22:14.897Z,56.30
2023-04-25T11:24:44.100Z,56.50
2023-04-25T11:27:14.476Z,56.90
2023-04-25T11:29:43.958Z,57.70
2023-04-25T11:32:12.645Z,61.40
2023-04-25T11:34:41.371Z,62.30
2023-04-25T11:37:14.740Z,62.20
2023-04-25T11:39:49.058Z,63.80
2023-04-25T11:42:18.295Z,61.40
2023-04-25T11:44:47.298Z,63.10
2023-04-25T11:47:19.618Z,63.80
2023-04-25T11:49:48.604Z,63.00
2023-04-25T11:52:17.789Z,65.30
2023-04-25T11:54:50.837Z,65.80
2023-04-25T11:57:22.621Z,65.90
2023-04-25T11:59:52.237Z,63.30
2023-04-25T12:02:28.479Z,65.80
2023-04-25T12:05:15.999Z,65.90
2023-04-25T12:07:51.391Z,68.70
2023-04-25T12:10:28.354Z,64.60
2023-04-25T12:13:00.677Z,61.70
2023-04-25T12:15:29.944Z,63.50
2023-04-25T12:17:59.187Z,64.30
2023-04-25T12:20:28.519Z,63.00
2023-04-25T12:22:57.418Z,62.40
2023-04-25T12:25:42.313Z,63.20
2023-04-25T12:28:15.424Z,64.00
2023-04-25T12:31:00.161Z,67.80
2023-04-25T12:33:31.572Z,67.20
2023-04-25T12:36:01.437Z,66.20
2023-04-25T12:38:32.648Z,64.80
2023-04-25T12:41:03.412Z,66.90
2023-04-25T12:43:32.420Z,66.90
2023-04-25T12:46:01.435Z,65.90
2023-04-25T12:48:30.684Z,65.30
2023-04-25T12:51:10.718Z,66.30
2023-04-25T12:53:43.624Z,65.80
2023-04-25T12:56:14.429Z,67.60
2023-04-25T12:58:45.407Z,65.20
2023-04-25T13:01:15.459Z,66.90
2023-04-25T13:03:44.917Z,65.20
2023-04-25T13:06:14.735Z,65.30
2023-04-25T13:08:44.312Z,66.40
2023-04-25T13:11:16.148Z,67.80
2023-04-25T13:13:46.301Z,66.80
2023-04-25T13:16:16.596Z,68.00
2023-04-25T13:18:45.638Z,67.10
2023-04-25T13:21:14.716Z,67.30
2023-04-25T13:23:44.476Z,67.50
2023-04-25T13:26:15.325Z,65.70
2023-04-25T13:28:44.954Z,66.80
2023-04-25T13:31:14.568Z,67.30
2023-04-25T13:33:43.591Z,67.00
2023-04-25T13:36:12.953Z,65.00
2023-04-25T13:38:45.278Z,60.10
2023-04-25T13:41:20.144Z,62.00
2023-04-25T13:43:50.365Z,63.20
2023-04-25T13:48:55.634Z,63.00
2023-04-25T13:51:28.278Z,63.70
2023-04-25T13:53:57.652Z,64.50
2023-04-25T13:56:28.173Z,68.50
2023-04-25T13:58:58.214Z,69.20
2023-04-25T14:01:28.918Z,67.50
2023-04-25T14:03:58.931Z,67.80
2023-04-25T14:06:28.661Z,69.30
2023-04-25T14:08:57.870Z,71.90
2023-04-25T14:11:28.344Z,69.80
2023-04-25T14:13:57.414Z,70.60
2023-04-25T14:16:26.415Z,68.00
2023-04-25T14:18:56.032Z,65.70
2023-04-25T14:21:25.293Z,67.70
2023-04-25T14:23:55.002Z,65.00
2023-04-25T14:26:24.258Z,66.00
2023-04-25T14:28:55.232Z,63.20
2023-04-25T14:31:24.234Z,63.80
2023-04-25T14:33:53.995Z,64.50
2023-04-25T14:36:24.793Z,66.50
2023-04-25T14:38:53.633Z,67.40
2023-04-25T14:41:22.718Z,69.10
2023-04-25T14:43:52.295Z,69.00
2023-04-25T14:46:27.096Z,65.70
2023-04-25T14:48:57.235Z,66.20
2023-04-25T14:51:27.777Z,69.20
2023-04-25T14:53:57.181Z,71.10
2023-04-25T14:56:26.211Z,71.60
2023-04-25T14:58:55.561Z,77.00
2023-04-25T15:01:27.555Z,76.70
2023-04-25T15:03:56.397Z,77.60
2023-04-25T15:06:29.720Z,76.20
2023-04-25T15:08:59.357Z,76.70
2023-04-25T15:11:28.685Z,75.10
2023-04-25T15:13:57.817Z,76.10
2023-04-25T15:16:28.876Z,76.80
2023-04-25T15:18:57.614Z,77.50
2023-04-25T15:21:28.176Z,78.50
2023-04-25T15:23:57.132Z,78.20
2023-04-25T15:26:26.292Z,79.00
2023-04-25T15:28:55.399Z,77.90
2023-04-25T15:31:24.864Z,75.90
2023-04-25T15:33:55.822Z,75.70
2023-04-25T15:36:24.685Z,76.40
2023-04-25T15:38:53.538Z,75.60
2023-04-25T15:41:22.633Z,75.80
2023-04-25T15:43:52.440Z,77.60
2023-04-25T15:46:26.409Z,77.80
2023-04-25T15:48:57.557Z,78.70
2023-04-25T15:51:27.309Z,77.90
2023-04-25T15:53:56.907Z,78.60
2023-04-25T15:56:26.431Z,80.20
2023-04-25T15:58:55.797Z,78.50
2023-04-25T16:01:27.409Z,79.60
2023-04-25T16:03:59.550Z,80.80
2023-04-25T16:06:29.259Z,83.10
2023-04-25T16:08:58.264Z,81.50
2023-04-25T16:11:27.509Z,82.30
2023-04-25T16:13:56.421Z,83.90
2023-04-25T16:16:26.722Z,82.60
2023-04-25T16:18:55.812Z,85.00
2023-04-25T16:21:27.680Z,87.40
2023-04-25T16:23:57.644Z,89.70
2023-04-25T16:26:27.091Z,90.50
2023-04-25T16:28:56.340Z,90.60
2023-04-25T16:31:25.414Z,91.70
2023-04-25T16:33:54.838Z,92.80
2023-04-25T16:36:25.381Z,92.70
2023-04-25T16:38:56.527Z,93.80
2023-04-25T16:41:25.671Z,94.60
2023-04-25T16:43:54.677Z,95.90
2023-04-25T16:46:24.202Z,97.00
2023-04-25T16:48:53.703Z,96.30
2023-04-25T16:51:23.204Z,96.20
2023-04-25T16:53:52.207Z,96.40
2023-04-25T16:56:23.564Z,95.50
2023-04-25T16:58:53.251Z,96.10
2023-04-25T17:01:23.461Z,95.80
2023-04-25T17:03:53.111Z,95.70
2023-04-25T17:06:22.933Z,96.40
2023-04-25T17:08:52.284Z,96.90
2023-04-25T17:11:23.296Z,97.80
2023-04-25T17:13:53.060Z,97.50
2023-04-25T17:16:23.469Z,99.50
2023-04-25T17:18:52.891Z,99.90
2023-04-25T17:21:22.728Z,99.90
2023-04-25T17:23:53.286Z,99.90
2023-04-25T17:26:24.916Z,99.90
2023-04-25T17:28:54.854Z,99.90
2023-04-25T17:31:24.942Z,99.90
2023-04-25T17:33:54.450Z,99.90
2023-04-25T17:36:23.729Z,99.90
2023-04-25T17:38:53.238Z,99.90
2023-04-25T17:41:24.765Z,99.90
2023-04-25T17:43:54.089Z,99.90
2023-04-25T17:46:23.132Z,99.90
2023-04-25T17:48:52.632Z,99.90
2023-04-25T17:51:22.182Z,99.90
2023-04-25T17:53:53.152Z,99.90
2023-04-25T17:56:27.497Z,99.90
2023-04-25T17:58:59.588Z,99.90
2023-04-25T18:01:34.871Z,99.90
2023-04-25T18:04:05.795Z,99.90
2023-04-25T18:06:34.654Z,99.90
2023-04-25T18:09:16.474Z,99.90
2023-04-25T18:11:49.748Z,99.90
2023-04-25T18:14:18.494Z,99.90
2023-04-25T18:16:48.431Z,99.90
2023-04-25T18:19:21.883Z,99.90
2023-04-25T18:21:53.566Z,99.90
2023-04-25T18:24:22.550Z,99.90
2023-04-25T18:26:55.379Z,99.90
2023-04-25T18:29:33.112Z,99.90
2023-04-25T18:32:05.378Z,99.90
2023-04-25T18:34:36.903Z,99.90
2023-04-25T18:37:07.981Z,99.90
2023-04-25T18:39:37.479Z,99.90
2023-04-25T18:42:09.368Z,99.90
2023-04-25T18:44:40.760Z,99.90
2023-04-25T18:47:11.253Z,99.90
2023-04-25T18:49:41.623Z,99.90
2023-04-25T18:52:13.407Z,99.90
2023-04-25T18:54:42.695Z,99.90
2023-04-25T18:57:15.543Z,99.90
2023-04-25T18:59:45.647Z,99.90
2023-04-25T19:02:16.914Z,99.90
2023-04-25T19:04:47.189Z,99.90
2023-04-25T19:07:16.804Z,99.90
2023-04-25T19:09:45.855Z,99.90
2023-04-25T19:12:16.601Z,99.90
2023-04-25T19:14:45.780Z,99.90
2023-04-25T19:17:15.175Z,99.90
2023-04-25T19:19:44.955Z,99.90
2023-04-25T19:22:14.636Z,99.90
2023-04-25T19:24:43.476Z,99.90
2023-04-25T19:27:12.672Z,99.90
2023-04-25T19:29:46.318Z,99.90
2023-04-25T19:32:15.799Z,99.90
2023-04-25T19:34:44.624Z,99.90
2023-04-25T19:37:13.277Z,99.90
2023-04-25T19:39:41.775Z,99.90
2023-04-25T19:42:10.853Z,99.90
2023-04-25T19:44:40.434Z,99.90
2023-04-25T19:47:12.310Z,99.90
2023-04-25T19:49:42.120Z,99.90
2023-04-25T19:52:15.064Z,99.90
2023-04-25T19:54:45.814Z,99.90
2023-04-25T19:57:15.459Z,99.90
2023-04-25T19:59:48.687Z,99.90
2023-04-25T20:02:21.538Z,99.90
2023-04-25T20:04:50.462Z,99.90
2023-04-25T20:07:20.265Z,99.90
2023-04-25T20:09:49.294Z,99.90
2023-04-25T20:12:26.239Z,99.90
2023-04-25T20:15:15.335Z,99.90
2023-04-25T20:17:53.804Z,99.90
2023-04-25T20:20:23.294Z,99.90
2023-04-25T20:22:52.174Z,99.90
2023-04-25T20:25:21.043Z,99.90
2023-04-25T20:27:50.082Z,99.90
2023-04-25T20:30:20.169Z,99.90
2023-04-25T20:32:50.535Z,99.90
2023-04-25T20:35:19.917Z,99.90
2023-04-25T20:37:49.448Z,99.90
2023-04-25T20:40:19.078Z,99.90
2023-04-25T20:42:48.075Z,99.90
2023-04-25T20:45:16.881Z,99.90
2023-04-25T20:47:45.849Z,99.90
2023-04-25T20:50:16.149Z,99.90
2023-04-25T20:52:45.114Z,99.90
2023-04-25T20:55:13.779Z,99.90
2023-04-25T20:57:42.657Z,99.90
2023-04-25T21:00:18.080Z,99.90
2023-04-25T21:02:48.088Z,99.90
2023-04-25T21:05:22.615Z,99.90
2023-04-25T21:07:52.909Z,99.90
2023-04-25T21:10:22.272Z,99.90
2023-04-25T21:12:52.360Z,99.90
2023-04-25T21:15:21.619Z,99.90
2023-04-25T21:17:51.687Z,99.90
2023-04-25T21:20:24.813Z,99.90
2023-04-25T21:22:54.616Z,99.90
2023-04-25T21:25:30.524Z,99.90
2023-04-25T21:28:00.116Z,99.90
2023-04-25T21:30:30.548Z,99.90
2023-04-25T21:32:59.378Z,99.90
2023-04-25T21:35:29.500Z,99.90
2023-04-25T21:37:59.033Z,99.90
2023-04-25T21:40:28.628Z,99.90
2023-04-25T21:42:57.394Z,99.90
2023-04-25T21:45:28.450Z,99.90
2023-04-25T21:47:57.415Z,99.90
2023-04-25T21:50:26.779Z,99.90
2023-04-25T21:52:59.332Z,99.90
2023-04-25T21:55:28.520Z,99.90
2023-04-25T21:57:57.405Z,99.90
2023-04-25T22:00:28.072Z,99.90
2023-04-25T22:02:57.863Z,99.90
2023-04-25T22:05:27.716Z,99.90
2023-04-25T22:07:58.396Z,99.90
2023-04-25T22:10:32.514Z,99.90
2023-04-25T22:13:01.416Z,99.90
2023-04-25T22:15:30.404Z,99.90
2023-04-25T22:17:59.322Z,99.90
2023-04-25T22:20:28.444Z,99.90
2023-04-25T22:22:58.757Z,99.90
2023-04-25T22:25:27.887Z,99.90
2023-04-25T22:27:57.456Z,99.90
2023-04-25T22:30:26.059Z,99.90
2023-04-25T22:32:55.469Z,99.90
2023-04-25T22:35:24.599Z,99.90
2023-04-25T22:37:54.097Z,99.90
2023-04-25T22:40:24.880Z,99.90
2023-04-25T22:42:54.388Z,99.90
2023-04-25T22:45:23.282Z,99.90
2023-04-25T22:47:52.091Z,99.90
2023-04-25T22:50:21.472Z,99.90
2023-04-25T22:52:50.336Z,99.90
2023-04-25T22:55:19.427Z,99.90
2023-04-25T22:57:49.654Z,99.90
2023-04-25T23:00:21.976Z,99.90
2023-04-25T23:02:51.873Z,99.90
2023-04-25T23:05:20.964Z,99.90
2023-04-25T23:07:49.624Z,99.90
2023-04-25T23:10:19.235Z,99.90
2023-04-25T23:12:49.647Z,99.90
2023-04-25T23:15:20.048Z,99.90
2023-04-25T23:17:48.950Z,99.90
2023-04-25T23:20:17.913Z,99.90
2023-04-25T23:22:46.672Z,99.90
2023-04-25T23:25:16.780Z,99.90
2023-04-25T23:27:46.482Z,99.90
2023-04-25T23:30:17.370Z,99.90
2023-04-25T23:32:46.570Z,99.90
2023-04-25T23:35:15.399Z,99.90
2023-04-25T23:37:44.353Z,99.90
2023-04-25T23:40:13.649Z,99.90
2023-04-25T23:42:43.917Z,99.90
2023-04-25T23:45:14.500Z,99.90
2023-04-25T23:47:45.171Z,99.90
2023-04-25T23:50:14.310Z,99.90
2023-04-25T23:52:43.038Z,99.90
2023-04-25T23:55:11.783Z,99.90
2023-04-25T23:57:40.236Z,99.90
